松山空港の過去48時間の天気

松山空港 (Matsuyama)

現在時刻: 1/18 19:27 JST (1/18 10:27 UTC) 以下の時間は現地時間です。

過去48時間のMETAR気象情報
時間 風向 風速(m/s) 視程 気温(℃) 湿度(%) 気圧(hPa) 天気現象
18 19:00 4 10km以上 10 62 1015
18 18:00 北北西 3 10km以上 11 58 1015
18 17:00 北西 3 10km以上 11 54 1014
18 16:00 北北西 4 10km以上 12 47 1014
18 15:00 4 10km以上 12 38 1013
18 14:00 8 10km以上 12 38 1013
18 13:00 7 10km以上 12 35 1013
18 12:00 不定 1 10km以上 12 44 1013
18 11:00 3 10km以上 11 50 1014
18 10:00 北北東 4 10km以上 10 62 1014
18 09:00 東北東 3 10km以上 8 71 1014
18 08:00 東南東 2 10km以上 6 81 1015
18 07:00 南東 2 10km以上 5 87 1014
18 06:10 南東 3 10km以上 5 81 1013
17 21:00 南東 2 10km以上 7 66 1014
17 20:00 東南東 3 10km以上 8 61 1015
17 19:00 東南東 3 10km以上 7 66 1015
17 18:00 東南東 4 10km以上 9 57 1014
17 17:00 北東 3 10km以上 11 35 1014
17 16:00 北北東 5 10km以上 11 50 1014
17 15:00 北北東 6 10km以上 11 54 1014
17 14:00 7 10km以上 11 54 1015
17 13:00 7 10km以上 12 58 1015
17 12:32 6 10km以上 11 58 1016
17 12:00 不定 1 10km以上 10 58 1017
17 11:00 北東 2 10km以上 9 62 1018
17 10:00 不定 1 10km以上 8 61 1019
17 09:00 南東 3 10km以上 7 70 1019
17 08:00 不定 2 10km以上 6 76 1019
17 07:00 1 10km以上 6 70 1019
17 06:10 2 10km以上 6 70 1019
16 21:00 東南東 3 10km以上 6 76 1022
16 20:00 東南東 3 10km以上 7 70 1022
RJOM 181000Z 36007KT CAVOK 10/03 Q1015
RJOM 180900Z 33006KT 9999 FEW060 11/03 Q1015
RJOM 180800Z 31006KT 9999 FEW035 11/02 Q1014
RJOM 180700Z 34007KT 9999 FEW030 12/01 Q1014
RJOM 180600Z 01007KT 340V050 9999 FEW030 12/M02 Q1013
RJOM 180500Z 01015KT 9999 FEW030 SCT/// 12/M02 Q1013
RJOM 180400Z 01013KT 9999 FEW030 SCT120 BKN/// 12/M03 Q1013
RJOM 180300Z VRB02KT 9999 FEW035 12/00 Q1013
RJOM 180200Z VRB06KT 9999 FEW035 11/01 Q1014
RJOM 180100Z 02008KT 9999 FEW030 10/03 Q1014
RJOM 180000Z 06006KT 020V080 9999 FEW030 SCT080 08/03 Q1014
RJOM 172300Z 11004KT 030V140 9999 FEW025 BKN060 BKN080 06/03 Q1015
RJOM 172200Z 13004KT 9999 FEW020 SCT060 BKN080 05/03 Q1014
RJOM 172110Z 13005KT 9999 FEW025 SCT060 BKN080 05/02 Q1013 RMK 1CU025 4SC060 6AC080 A2993
RJOM 171200Z 13004KT 9999 FEW035 BKN100 07/01 Q1014
RJOM 171100Z 12005KT 9999 FEW035 BKN100 08/01 Q1015
RJOM 171000Z 12005KT 9999 FEW035 07/01 Q1015
RJOM 170900Z 12007KT 9999 FEW035 09/01 Q1014
RJOM 170800Z 05006KT 9999 FEW035 SCT/// 11/M04 Q1014
RJOM 170700Z 03010KT 9999 FEW035 BKN/// 11/01 Q1014
RJOM 170600Z 02012KT 9999 FEW035 SCT080 BKN/// 11/02 Q1014
RJOM 170500Z 01013KT 9999 FEW035 BKN080 BKN/// 11/02 Q1015
RJOM 170400Z 35014KT 9999 FEW030 BKN/// 12/04 Q1015
RJOM 170332Z 36012KT 9999 FEW030 SCT080 BKN/// 11/03 Q1016 RMK 1CU030 3AC080 A3001 P/FR
RJOM 170300Z VRB02KT 9999 FEW030 SCT140 BKN/// 10/02 Q1017
RJOM 170200Z 04003KT 350V100 9999 FEW030 SCT090 BKN/// 09/02 Q1018
RJOM 170100Z VRB02KT 9999 FEW035 SCT100 BKN/// 08/01 Q1019
RJOM 170000Z 13005KT 9999 FEW035 SCT090 BKN/// 07/02 Q1019
RJOM 162300Z VRB03KT 9999 FEW030 SCT080 BKN150 06/02 Q1019
RJOM 162200Z 10002KT 9999 FEW030 SCT080 BKN120 06/01 Q1019
RJOM 162110Z 10003KT 9999 FEW040 SCT080 BKN110 06/01 Q1019 RMK 1CU040 3AC080 5AC110 A3011
RJOM 161200Z 11006KT 9999 FEW035 SCT160 BKN/// 06/02 Q1022
RJOM 161100Z 11006KT 9999 FEW035 SCT170 BKN/// 07/02 Q1022